sensor_id;sensor_type;location;lat;lon;timestamp;temperature;humidity
60848;DHT22;46681;47.696;9.140;2022-09-20T00:01:32;15.90;54.10
60848;DHT22;46681;47.696;9.140;2022-09-20T00:04:02;15.90;54.10
60848;DHT22;46681;47.696;9.140;2022-09-20T00:06:30;15.90;54.00
60848;DHT22;46681;47.696;9.140;2022-09-20T00:08:57;15.80;53.80
60848;DHT22;46681;47.696;9.140;2022-09-20T00:11:27;15.80;53.90
60848;DHT22;46681;47.696;9.140;2022-09-20T00:13:57;15.70;54.10
60848;DHT22;46681;47.696;9.140;2022-09-20T00:16:32;15.70;54.10
60848;DHT22;46681;47.696;9.140;2022-09-20T00:19:03;15.70;53.90
60848;DHT22;46681;47.696;9.140;2022-09-20T00:21:32;15.70;54.00
60848;DHT22;46681;47.696;9.140;2022-09-20T00:24:00;15.70;54.00
60848;DHT22;46681;47.696;9.140;2022-09-20T00:26:28;15.70;54.30
60848;DHT22;46681;47.696;9.140;2022-09-20T00:28:56;15.60;54.00
60848;DHT22;46681;47.696;9.140;2022-09-20T00:31:27;15.60;54.20
60848;DHT22;46681;47.696;9.140;2022-09-20T00:33:54;15.60;54.20
60848;DHT22;46681;47.696;9.140;2022-09-20T00:36:24;15.60;54.20
60848;DHT22;46681;47.696;9.140;2022-09-20T00:38:57;15.50;54.20
60848;DHT22;46681;47.696;9.140;2022-09-20T00:41:28;15.50;54.30
60848;DHT22;46681;47.696;9.140;2022-09-20T00:43:58;15.50;54.20
60848;DHT22;46681;47.696;9.140;2022-09-20T00:46:45;15.50;54.20
60848;DHT22;46681;47.696;9.140;2022-09-20T00:49:20;15.40;54.20
60848;DHT22;46681;47.696;9.140;2022-09-20T00:51:54;15.50;54.20
60848;DHT22;46681;47.696;9.140;2022-09-20T00:54:23;15.40;54.30
60848;DHT22;46681;47.696;9.140;2022-09-20T00:56:50;15.40;54.30
60848;DHT22;46681;47.696;9.140;2022-09-20T00:59:26;15.40;54.20
60848;DHT22;46681;47.696;9.140;2022-09-20T01:02:00;15.40;54.40
60848;DHT22;46681;47.696;9.140;2022-09-20T01:04:29;15.40;54.30
60848;DHT22;46681;47.696;9.140;2022-09-20T01:06:57;15.30;54.40
60848;DHT22;46681;47.696;9.140;2022-09-20T01:09:29;15.30;54.40
60848;DHT22;46681;47.696;9.140;2022-09-20T01:11:56;15.30;54.50
60848;DHT22;46681;47.696;9.140;2022-09-20T01:14:27;15.30;54.60
60848;DHT22;46681;47.696;9.140;2022-09-20T01:16:55;15.30;54.60
60848;DHT22;46681;47.696;9.140;2022-09-20T01:28:04;15.20;54.70
60848;DHT22;46681;47.696;9.140;2022-09-20T01:36:07;15.10;54.60
60848;DHT22;46681;47.696;9.140;2022-09-20T01:42:05;15.10;54.70
60848;DHT22;46681;47.696;9.140;2022-09-20T01:56:32;15.00;54.90
60848;DHT22;46681;47.696;9.140;2022-09-20T02:07:36;14.90;54.90
60848;DHT22;46681;47.696;9.140;2022-09-20T02:12:54;14.90;55.00
60848;DHT22;46681;47.696;9.140;2022-09-20T02:18:31;14.80;54.80
60848;DHT22;46681;47.696;9.140;2022-09-20T02:21:51;14.80;55.10
60848;DHT22;46681;47.696;9.140;2022-09-20T02:30:45;14.70;55.00
60848;DHT22;46681;47.696;9.140;2022-09-20T02:33:40;14.70;55.00
60848;DHT22;46681;47.696;9.140;2022-09-20T02:39:27;14.60;55.10
60848;DHT22;46681;47.696;9.140;2022-09-20T02:42:14;14.60;55.00
60848;DHT22;46681;47.696;9.140;2022-09-20T02:47:55;14.50;55.10
60848;DHT22;46681;47.696;9.140;2022-09-20T02:50:53;14.50;55.10
60848;DHT22;46681;47.696;9.140;2022-09-20T02:56:53;14.50;55.10
60848;DHT22;46681;47.696;9.140;2022-09-20T03:05:35;14.40;55.10
60848;DHT22;46681;47.696;9.140;2022-09-20T03:08:48;14.40;55.00
60848;DHT22;46681;47.696;9.140;2022-09-20T03:11:35;14.40;55.00
60848;DHT22;46681;47.696;9.140;2022-09-20T03:14:40;14.30;55.00
60848;DHT22;46681;47.696;9.140;2022-09-20T03:17:34;14.30;55.00
60848;DHT22;46681;47.696;9.140;2022-09-20T03:20:14;14.30;55.10
60848;DHT22;46681;47.696;9.140;2022-09-20T03:31:45;14.20;55.10
60848;DHT22;46681;47.696;9.140;2022-09-20T03:37:45;14.10;55.10
60848;DHT22;46681;47.696;9.140;2022-09-20T03:42:53;14.10;55.50
60848;DHT22;46681;47.696;9.140;2022-09-20T03:45:53;14.00;55.00
60848;DHT22;46681;47.696;9.140;2022-09-20T03:48:42;14.00;55.10
60848;DHT22;46681;47.696;9.140;2022-09-20T03:54:27;14.00;55.50
60848;DHT22;46681;47.696;9.140;2022-09-20T03:57:19;14.00;55.20
60848;DHT22;46681;47.696;9.140;2022-09-20T04:00:24;13.90;55.10
60848;DHT22;46681;47.696;9.140;2022-09-20T04:08:43;13.80;55.50
60848;DHT22;46681;47.696;9.140;2022-09-20T04:11:39;13.90;55.50
60848;DHT22;46681;47.696;9.140;2022-09-20T04:17:35;13.80;55.60
60848;DHT22;46681;47.696;9.140;2022-09-20T04:20:34;13.80;55.60
60848;DHT22;46681;47.696;9.140;2022-09-20T04:23:29;13.80;55.60
60848;DHT22;46681;47.696;9.140;2022-09-20T04:26:01;13.80;55.60
60848;DHT22;46681;47.696;9.140;2022-09-20T04:37:48;13.70;55.30
60848;DHT22;46681;47.696;9.140;2022-09-20T04:55:59;13.60;55.30
60848;DHT22;46681;47.696;9.140;2022-09-20T05:16:26;13.50;55.90
60848;DHT22;46681;47.696;9.140;2022-09-20T05:43:45;13.40;55.90
60848;DHT22;46681;47.696;9.140;2022-09-20T05:58:22;13.30;55.70
60848;DHT22;46681;47.696;9.140;2022-09-20T06:01:26;13.30;55.70
60848;DHT22;46681;47.696;9.140;2022-09-20T06:04:41;13.30;55.60
60848;DHT22;46681;47.696;9.140;2022-09-20T06:29:10;13.30;55.30
60848;DHT22;46681;47.696;9.140;2022-09-20T06:32:04;13.30;55.40
60848;DHT22;46681;47.696;9.140;2022-09-20T06:34:40;13.30;55.40
60848;DHT22;46681;47.696;9.140;2022-09-20T06:37:43;13.30;55.40
60848;DHT22;46681;47.696;9.140;2022-09-20T06:40:45;13.30;55.40
60848;DHT22;46681;47.696;9.140;2022-09-20T06:43:49;13.40;55.40
60848;DHT22;46681;47.696;9.140;2022-09-20T06:46:34;13.40;55.30
60848;DHT22;46681;47.696;9.140;2022-09-20T06:49:13;13.40;55.40
60848;DHT22;46681;47.696;9.140;2022-09-20T06:51:58;13.40;55.40
60848;DHT22;46681;47.696;9.140;2022-09-20T06:54:28;13.40;55.30
60848;DHT22;46681;47.696;9.140;2022-09-20T06:57:10;13.40;55.40
60848;DHT22;46681;47.696;9.140;2022-09-20T07:00:03;13.40;55.30
60848;DHT22;46681;47.696;9.140;2022-09-20T07:02:47;13.40;55.30
60848;DHT22;46681;47.696;9.140;2022-09-20T07:05:25;13.50;55.30
60848;DHT22;46681;47.696;9.140;2022-09-20T07:08:12;13.50;55.20
60848;DHT22;46681;47.696;9.140;2022-09-20T07:11:00;13.50;55.20
60848;DHT22;46681;47.696;9.140;2022-09-20T07:16:41;13.50;55.10
60848;DHT22;46681;47.696;9.140;2022-09-20T07:19:13;13.60;55.20
60848;DHT22;46681;47.696;9.140;2022-09-20T07:21:49;13.60;55.10
60848;DHT22;46681;47.696;9.140;2022-09-20T07:24:36;13.60;55.00
60848;DHT22;46681;47.696;9.140;2022-09-20T07:27:34;13.70;55.00
60848;DHT22;46681;47.696;9.140;2022-09-20T07:30:41;13.80;55.00
60848;DHT22;46681;47.696;9.140;2022-09-20T07:33:20;13.80;54.90
60848;DHT22;46681;47.696;9.140;2022-09-20T07:36:08;13.90;55.10
60848;DHT22;46681;47.696;9.140;2022-09-20T07:38:56;13.90;54.80
60848;DHT22;46681;47.696;9.140;2022-09-20T07:41:36;14.00;54.90
60848;DHT22;46681;47.696;9.140;2022-09-20T07:47:53;14.20;55.10
60848;DHT22;46681;47.696;9.140;2022-09-20T07:50:49;14.40;55.20
60848;DHT22;46681;47.696;9.140;2022-09-20T07:53:47;14.60;54.70
60848;DHT22;46681;47.696;9.140;2022-09-20T07:56:28;14.70;54.70
60848;DHT22;46681;47.696;9.140;2022-09-20T08:01:57;14.90;54.10
60848;DHT22;46681;47.696;9.140;2022-09-20T08:04:52;15.00;54.10
60848;DHT22;46681;47.696;9.140;2022-09-20T08:11:16;15.30;53.80
60848;DHT22;46681;47.696;9.140;2022-09-20T08:13:54;15.50;53.40
60848;DHT22;46681;47.696;9.140;2022-09-20T08:16:51;15.50;53.30
60848;DHT22;46681;47.696;9.140;2022-09-20T08:26:25;15.80;53.30
60848;DHT22;46681;47.696;9.140;2022-09-20T08:32:16;16.00;53.40
60848;DHT22;46681;47.696;9.140;2022-09-20T08:35:15;16.10;53.00
60848;DHT22;46681;47.696;9.140;2022-09-20T08:37:47;16.20;52.90
60848;DHT22;46681;47.696;9.140;2022-09-20T08:43:17;16.40;52.20
60848;DHT22;46681;47.696;9.140;2022-09-20T08:49:12;16.90;51.60
60848;DHT22;46681;47.696;9.140;2022-09-20T08:51:55;17.10;51.10
60848;DHT22;46681;47.696;9.140;2022-09-20T08:54:50;17.20;50.90
60848;DHT22;46681;47.696;9.140;2022-09-20T08:57:38;17.40;50.50
60848;DHT22;46681;47.696;9.140;2022-09-20T09:00:54;17.50;50.30
60848;DHT22;46681;47.696;9.140;2022-09-20T09:03:33;17.70;49.90
60848;DHT22;46681;47.696;9.140;2022-09-20T09:06:17;17.90;49.60
60848;DHT22;46681;47.696;9.140;2022-09-20T09:09:37;18.00;49.40
60848;DHT22;46681;47.696;9.140;2022-09-20T09:31:23;18.30;48.70
60848;DHT22;46681;47.696;9.140;2022-09-20T09:34:39;18.50;48.60
60848;DHT22;46681;47.696;9.140;2022-09-20T09:38:00;18.80;48.30
60848;DHT22;46681;47.696;9.140;2022-09-20T09:44:26;19.40;46.80
60848;DHT22;46681;47.696;9.140;2022-09-20T09:47:53;19.70;46.40
60848;DHT22;46681;47.696;9.140;2022-09-20T09:54:45;20.20;45.50
60848;DHT22;46681;47.696;9.140;2022-09-20T10:09:55;21.60;43.50
60848;DHT22;46681;47.696;9.140;2022-09-20T10:28:58;21.00;44.60
60848;DHT22;46681;47.696;9.140;2022-09-20T11:39:53;20.70;44.40
60848;DHT22;46681;47.696;9.140;2022-09-20T11:42:45;20.70;42.80
60848;DHT22;46681;47.696;9.140;2022-09-20T11:45:46;20.70;42.60
60848;DHT22;46681;47.696;9.140;2022-09-20T11:58:19;20.90;43.50
60848;DHT22;46681;47.696;9.140;2022-09-20T13:43:51;20.90;42.50
60848;DHT22;46681;47.696;9.140;2022-09-20T13:46:05;20.90;42.70
60848;DHT22;46681;47.696;9.140;2022-09-20T13:48:49;20.90;42.80
60848;DHT22;46681;47.696;9.140;2022-09-20T14:02:00;21.60;43.00
60848;DHT22;46681;47.696;9.140;2022-09-20T14:14:18;21.60;42.60
60848;DHT22;46681;47.696;9.140;2022-09-20T14:20:39;21.30;41.80
60848;DHT22;46681;47.696;9.140;2022-09-20T14:26:29;21.30;43.10
60848;DHT22;46681;47.696;9.140;2022-09-20T14:44:48;21.20;41.60
60848;DHT22;46681;47.696;9.140;2022-09-20T14:47:49;21.20;41.50
60848;DHT22;46681;47.696;9.140;2022-09-20T14:53:36;21.10;41.70
60848;DHT22;46681;47.696;9.140;2022-09-20T14:59:35;21.10;41.90
60848;DHT22;46681;47.696;9.140;2022-09-20T15:02:23;21.00;42.10
60848;DHT22;46681;47.696;9.140;2022-09-20T15:05:04;21.00;42.20
60848;DHT22;46681;47.696;9.140;2022-09-20T15:08:01;20.90;42.30
60848;DHT22;46681;47.696;9.140;2022-09-20T15:10:51;20.90;42.60
60848;DHT22;46681;47.696;9.140;2022-09-20T15:14:06;20.90;42.60
60848;DHT22;46681;47.696;9.140;2022-09-20T15:16:55;20.90;42.60
60848;DHT22;46681;47.696;9.140;2022-09-20T15:19:36;20.80;42.80
60848;DHT22;46681;47.696;9.140;2022-09-20T15:22:35;20.70;42.80
60848;DHT22;46681;47.696;9.140;2022-09-20T15:37:51;20.50;43.40
60848;DHT22;46681;47.696;9.140;2022-09-20T15:40:31;20.40;43.60
60848;DHT22;46681;47.696;9.140;2022-09-20T15:43:42;20.40;43.60
60848;DHT22;46681;47.696;9.140;2022-09-20T15:46:31;20.40;43.70
60848;DHT22;46681;47.696;9.140;2022-09-20T15:49:26;20.40;44.10
60848;DHT22;46681;47.696;9.140;2022-09-20T15:52:14;20.40;44.10
60848;DHT22;46681;47.696;9.140;2022-09-20T15:55:09;20.30;44.40
60848;DHT22;46681;47.696;9.140;2022-09-20T15:57:54;20.30;44.70
60848;DHT22;46681;47.696;9.140;2022-09-20T16:06:58;20.10;44.30
60848;DHT22;46681;47.696;9.140;2022-09-20T16:09:39;20.10;44.40
60848;DHT22;46681;47.696;9.140;2022-09-20T16:15:59;20.00;44.40
60848;DHT22;46681;47.696;9.140;2022-09-20T16:18:59;20.00;44.70
60848;DHT22;46681;47.696;9.140;2022-09-20T16:21:52;19.90;44.80
60848;DHT22;46681;47.696;9.140;2022-09-20T16:24:48;19.90;45.00
60848;DHT22;46681;47.696;9.140;2022-09-20T16:27:48;19.80;45.10
60848;DHT22;46681;47.696;9.140;2022-09-20T16:31:01;19.70;45.20
60848;DHT22;46681;47.696;9.140;2022-09-20T16:46:40;19.50;45.80
60848;DHT22;46681;47.696;9.140;2022-09-20T16:49:38;19.40;45.90
60848;DHT22;46681;47.696;9.140;2022-09-20T16:52:35;19.30;45.90
60848;DHT22;46681;47.696;9.140;2022-09-20T16:55:31;19.30;46.00
60848;DHT22;46681;47.696;9.140;2022-09-20T16:58:10;19.30;46.20
60848;DHT22;46681;47.696;9.140;2022-09-20T17:01:05;19.20;46.30
60848;DHT22;46681;47.696;9.140;2022-09-20T17:03:49;19.10;46.90
60848;DHT22;46681;47.696;9.140;2022-09-20T17:06:20;19.10;46.90
60848;DHT22;46681;47.696;9.140;2022-09-20T17:08:58;19.00;46.70
60848;DHT22;46681;47.696;9.140;2022-09-20T17:11:47;19.00;46.80
60848;DHT22;46681;47.696;9.140;2022-09-20T17:14:32;18.90;46.70
60848;DHT22;46681;47.696;9.140;2022-09-20T17:18:19;18.80;46.90
60848;DHT22;46681;47.696;9.140;2022-09-20T17:20:23;18.80;47.10
60848;DHT22;46681;47.696;9.140;2022-09-20T17:23:24;18.80;47.10
60848;DHT22;46681;47.696;9.140;2022-09-20T17:26:41;18.70;47.10
60848;DHT22;46681;47.696;9.140;2022-09-20T17:29:15;18.60;47.30
60848;DHT22;46681;47.696;9.140;2022-09-20T17:34:44;18.50;47.40
60848;DHT22;46681;47.696;9.140;2022-09-20T17:37:25;18.50;47.60
60848;DHT22;46681;47.696;9.140;2022-09-20T17:40:18;18.40;47.60
60848;DHT22;46681;47.696;9.140;2022-09-20T17:42:53;18.40;47.70
60848;DHT22;46681;47.696;9.140;2022-09-20T17:45:40;18.30;47.80
60848;DHT22;46681;47.696;9.140;2022-09-20T17:48:08;18.20;47.80
60848;DHT22;46681;47.696;9.140;2022-09-20T17:50:52;18.20;48.00
60848;DHT22;46681;47.696;9.140;2022-09-20T17:53:41;18.10;47.90
60848;DHT22;46681;47.696;9.140;2022-09-20T17:59:19;18.00;48.20
60848;DHT22;46681;47.696;9.140;2022-09-20T18:02:04;18.00;48.40
60848;DHT22;46681;47.696;9.140;2022-09-20T18:04:38;17.90;48.40
60848;DHT22;46681;47.696;9.140;2022-09-20T18:07:21;17.90;48.50
60848;DHT22;46681;47.696;9.140;2022-09-20T18:09:50;17.80;48.70
60848;DHT22;46681;47.696;9.140;2022-09-20T18:12:36;17.80;48.70
60848;DHT22;46681;47.696;9.140;2022-09-20T18:15:18;17.70;48.70
60848;DHT22;46681;47.696;9.140;2022-09-20T18:17:49;17.70;48.90
60848;DHT22;46681;47.696;9.140;2022-09-20T18:20:33;17.60;48.90
60848;DHT22;46681;47.696;9.140;2022-09-20T18:23:04;17.60;49.00
60848;DHT22;46681;47.696;9.140;2022-09-20T18:25:39;17.50;49.10
60848;DHT22;46681;47.696;9.140;2022-09-20T18:28:22;17.50;49.10
60848;DHT22;46681;47.696;9.140;2022-09-20T18:37:16;17.30;49.50
60848;DHT22;46681;47.696;9.140;2022-09-20T18:39:54;17.20;49.40
60848;DHT22;46681;47.696;9.140;2022-09-20T18:42:38;17.20;49.60
60848;DHT22;46681;47.696;9.140;2022-09-20T18:45:24;17.10;49.60
60848;DHT22;46681;47.696;9.140;2022-09-20T18:48:09;17.10;49.70
60848;DHT22;46681;47.696;9.140;2022-09-20T18:53:35;17.00;49.90
60848;DHT22;46681;47.696;9.140;2022-09-20T18:56:21;16.90;49.90
60848;DHT22;46681;47.696;9.140;2022-09-20T18:59:02;16.90;50.10
60848;DHT22;46681;47.696;9.140;2022-09-20T19:04:52;16.80;50.00
60848;DHT22;46681;47.696;9.140;2022-09-20T19:16:19;16.60;50.40
60848;DHT22;46681;47.696;9.140;2022-09-20T19:27:25;16.40;50.40
60848;DHT22;46681;47.696;9.140;2022-09-20T19:29:51;16.40;50.50
60848;DHT22;46681;47.696;9.140;2022-09-20T19:32:20;16.40;50.50
60848;DHT22;46681;47.696;9.140;2022-09-20T19:43:26;16.30;50.60
60848;DHT22;46681;47.696;9.140;2022-09-20T19:46:26;16.20;50.60
60848;DHT22;46681;47.696;9.140;2022-09-20T19:52:04;16.20;50.80
60848;DHT22;46681;47.696;9.140;2022-09-20T19:54:33;16.10;50.80
60848;DHT22;46681;47.696;9.140;2022-09-20T19:57:00;16.10;50.80
60848;DHT22;46681;47.696;9.140;2022-09-20T19:59:31;16.10;50.90
60848;DHT22;46681;47.696;9.140;2022-09-20T20:01:58;16.10;50.90
60848;DHT22;46681;47.696;9.140;2022-09-20T20:04:28;16.10;51.00
60848;DHT22;46681;47.696;9.140;2022-09-20T20:15:46;16.00;51.20
60848;DHT22;46681;47.696;9.140;2022-09-20T20:21:17;15.90;51.10
60848;DHT22;46681;47.696;9.140;2022-09-20T20:26:47;15.90;51.30
60848;DHT22;46681;47.696;9.140;2022-09-20T20:29:12;15.90;51.20
60848;DHT22;46681;47.696;9.140;2022-09-20T20:31:39;15.90;51.30
60848;DHT22;46681;47.696;9.140;2022-09-20T20:34:07;15.90;51.30
60848;DHT22;46681;47.696;9.140;2022-09-20T20:36:38;15.80;51.30
60848;DHT22;46681;47.696;9.140;2022-09-20T20:39:07;15.80;51.30
60848;DHT22;46681;47.696;9.140;2022-09-20T20:41:43;15.80;51.30
60848;DHT22;46681;47.696;9.140;2022-09-20T20:44:34;15.80;51.40
60848;DHT22;46681;47.696;9.140;2022-09-20T20:47:02;15.80;51.40
60848;DHT22;46681;47.696;9.140;2022-09-20T20:49:29;15.70;51.40
60848;DHT22;46681;47.696;9.140;2022-09-20T20:52:07;15.70;51.40
60848;DHT22;46681;47.696;9.140;2022-09-20T20:54:35;15.70;51.40
60848;DHT22;46681;47.696;9.140;2022-09-20T20:57:05;15.70;51.60
60848;DHT22;46681;47.696;9.140;2022-09-20T20:59:30;15.70;51.40
60848;DHT22;46681;47.696;9.140;2022-09-20T21:01:59;15.70;51.60
60848;DHT22;46681;47.696;9.140;2022-09-20T21:04:26;15.70;51.60
60848;DHT22;46681;47.696;9.140;2022-09-20T21:06:51;15.70;51.60
60848;DHT22;46681;47.696;9.140;2022-09-20T21:09:21;15.70;51.60
60848;DHT22;46681;47.696;9.140;2022-09-20T21:11:58;15.60;51.60
60848;DHT22;46681;47.696;9.140;2022-09-20T21:14:32;15.60;51.60
60848;DHT22;46681;47.696;9.140;2022-09-20T21:16:57;15.60;51.70
60848;DHT22;46681;47.696;9.140;2022-09-20T21:19:25;15.60;51.70
60848;DHT22;46681;47.696;9.140;2022-09-20T21:21:54;15.60;51.70
60848;DHT22;46681;47.696;9.140;2022-09-20T21:24:25;15.60;51.70
60848;DHT22;46681;47.696;9.140;2022-09-20T21:26:57;15.60;51.70
60848;DHT22;46681;47.696;9.140;2022-09-20T21:29:24;15.60;51.70
60848;DHT22;46681;47.696;9.140;2022-09-20T21:31:49;15.60;51.70
60848;DHT22;46681;47.696;9.140;2022-09-20T21:34:15;15.60;51.80
60848;DHT22;46681;47.696;9.140;2022-09-20T21:36:43;15.50;51.70
60848;DHT22;46681;47.696;9.140;2022-09-20T21:39:11;15.60;51.80
60848;DHT22;46681;47.696;9.140;2022-09-20T21:41:45;15.50;51.80
60848;DHT22;46681;47.696;9.140;2022-09-20T21:44:13;15.50;51.80
60848;DHT22;46681;47.696;9.140;2022-09-20T21:46:46;15.50;51.80
60848;DHT22;46681;47.696;9.140;2022-09-20T21:49:14;15.50;51.80
60848;DHT22;46681;47.696;9.140;2022-09-20T21:51:49;15.50;51.90
60848;DHT22;46681;47.696;9.140;2022-09-20T21:54:22;15.50;52.00
60848;DHT22;46681;47.696;9.140;2022-09-20T21:56:52;15.50;51.90
60848;DHT22;46681;47.696;9.140;2022-09-20T21:59:18;15.50;51.90
60848;DHT22;46681;47.696;9.140;2022-09-20T22:01:47;15.50;52.00
60848;DHT22;46681;47.696;9.140;2022-09-20T22:04:13;15.40;52.00
60848;DHT22;46681;47.696;9.140;2022-09-20T22:06:44;15.50;52.10
60848;DHT22;46681;47.696;9.140;2022-09-20T22:09:16;15.50;52.10
60848;DHT22;46681;47.696;9.140;2022-09-20T22:11:47;15.50;52.10
60848;DHT22;46681;47.696;9.140;2022-09-20T22:14:16;15.40;52.10
60848;DHT22;46681;47.696;9.140;2022-09-20T22:16:43;15.40;52.10
60848;DHT22;46681;47.696;9.140;2022-09-20T22:19:11;15.40;52.20
60848;DHT22;46681;47.696;9.140;2022-09-20T22:21:47;15.40;52.10
60848;DHT22;46681;47.696;9.140;2022-09-20T22:24:18;15.40;52.10
60848;DHT22;46681;47.696;9.140;2022-09-20T22:26:46;15.40;52.10
60848;DHT22;46681;47.696;9.140;2022-09-20T22:29:12;15.40;52.10
60848;DHT22;46681;47.696;9.140;2022-09-20T22:31:43;15.40;52.20
60848;DHT22;46681;47.696;9.140;2022-09-20T22:34:13;15.40;52.20
60848;DHT22;46681;47.696;9.140;2022-09-20T22:36:43;15.40;52.20
60848;DHT22;46681;47.696;9.140;2022-09-20T22:39:09;15.40;52.20
60848;DHT22;46681;47.696;9.140;2022-09-20T22:41:39;15.30;52.10
60848;DHT22;46681;47.696;9.140;2022-09-20T22:44:08;15.40;52.20
60848;DHT22;46681;47.696;9.140;2022-09-20T22:46:34;15.40;52.20
60848;DHT22;46681;47.696;9.140;2022-09-20T22:49:00;15.30;52.10
60848;DHT22;46681;47.696;9.140;2022-09-20T22:51:32;15.30;52.20
60848;DHT22;46681;47.696;9.140;2022-09-20T22:54:02;15.30;52.20
60848;DHT22;46681;47.696;9.140;2022-09-20T22:56:32;15.30;52.10
60848;DHT22;46681;47.696;9.140;2022-09-20T22:59:05;15.30;52.20
60848;DHT22;46681;47.696;9.140;2022-09-20T23:01:43;15.30;52.60
60848;DHT22;46681;47.696;9.140;2022-09-20T23:04:16;15.30;52.30
60848;DHT22;46681;47.696;9.140;2022-09-20T23:06:44;15.30;52.30
60848;DHT22;46681;47.696;9.140;2022-09-20T23:09:34;15.20;52.20
60848;DHT22;46681;47.696;9.140;2022-09-20T23:12:05;15.20;52.10
60848;DHT22;46681;47.696;9.140;2022-09-20T23:14:33;15.20;52.20
60848;DHT22;46681;47.696;9.140;2022-09-20T23:17:04;15.20;52.30
60848;DHT22;46681;47.696;9.140;2022-09-20T23:19:29;15.20;52.30
60848;DHT22;46681;47.696;9.140;2022-09-20T23:21:55;15.20;52.30
60848;DHT22;46681;47.696;9.140;2022-09-20T23:24:22;15.10;52.30
60848;DHT22;46681;47.696;9.140;2022-09-20T23:26:48;15.10;52.40
60848;DHT22;46681;47.696;9.140;2022-09-20T23:29:14;15.10;52.40
60848;DHT22;46681;47.696;9.140;2022-09-20T23:31:41;15.10;52.40
60848;DHT22;46681;47.696;9.140;2022-09-20T23:34:10;15.00;52.30
60848;DHT22;46681;47.696;9.140;2022-09-20T23:36:38;15.00;52.40
60848;DHT22;46681;47.696;9.140;2022-09-20T23:39:11;15.00;52.40
60848;DHT22;46681;47.696;9.140;2022-09-20T23:41:37;15.00;52.40
60848;DHT22;46681;47.696;9.140;2022-09-20T23:44:05;15.00;52.40
60848;DHT22;46681;47.696;9.140;2022-09-20T23:46:31;15.00;52.50
60848;DHT22;46681;47.696;9.140;2022-09-20T23:48:57;15.00;52.50
60848;DHT22;46681;47.696;9.140;2022-09-20T23:51:26;14.90;52.50
60848;DHT22;46681;47.696;9.140;2022-09-20T23:53:55;14.90;52.50
60848;DHT22;46681;47.696;9.140;2022-09-20T23:56:23;14.90;52.60
60848;DHT22;46681;47.696;9.140;2022-09-20T23:58:54;14.80;52.60
